createdAt,value
2023-02-14T00:01:40.336Z,8.28
2023-02-14T00:04:48.323Z,8.26
2023-02-14T00:07:54.600Z,8.24
2023-02-14T00:11:00.961Z,8.24
2023-02-14T00:14:25.549Z,8.23
2023-02-14T00:17:31.808Z,8.23
2023-02-14T00:20:38.036Z,8.22
2023-02-14T00:23:44.246Z,8.19
2023-02-14T00:26:51.246Z,8.18
2023-02-14T00:30:02.215Z,8.17
2023-02-14T00:33:08.476Z,8.16
2023-02-14T00:36:15.209Z,8.13
2023-02-14T00:39:22.447Z,8.13
2023-02-14T00:42:28.713Z,8.16
2023-02-14T00:45:35.108Z,8.16
2023-02-14T00:48:41.428Z,8.15
2023-02-14T00:51:47.714Z,8.12
2023-02-14T00:54:52.332Z,8.10
2023-02-14T00:57:58.499Z,8.04
2023-02-14T01:01:04.897Z,8.06
2023-02-14T01:04:11.192Z,8.07
2023-02-14T01:07:17.438Z,8.12
2023-02-14T01:10:24.049Z,8.14
2023-02-14T01:13:30.317Z,8.18
2023-02-14T01:16:37.164Z,8.21
2023-02-14T01:19:43.447Z,8.21
2023-02-14T01:22:49.694Z,8.22
2023-02-14T01:25:54.183Z,8.22
2023-02-14T01:29:00.410Z,8.19
2023-02-14T01:32:06.918Z,8.21
2023-02-14T01:35:13.898Z,8.22
2023-02-14T01:38:20.065Z,8.22
2023-02-14T01:41:27.798Z,8.23
2023-02-14T01:45:00.110Z,8.22
2023-02-14T01:48:06.593Z,8.21
2023-02-14T01:51:11.265Z,8.20
2023-02-14T01:54:18.453Z,8.17
2023-02-14T01:57:30.261Z,8.17
2023-02-14T02:00:54.540Z,8.17
2023-02-14T02:04:04.620Z,8.14
2023-02-14T02:07:16.116Z,8.14
2023-02-14T02:10:22.588Z,8.16
2023-02-14T02:13:28.755Z,8.17
2023-02-14T02:16:48.344Z,8.16
2023-02-14T02:20:48.510Z,8.14
2023-02-14T02:24:31.519Z,8.10
2023-02-14T02:28:04.626Z,8.07
2023-02-14T02:31:32.750Z,8.09
2023-02-14T02:35:17.242Z,8.11
2023-02-14T02:38:41.907Z,8.12
2023-02-14T02:41:57.100Z,8.10
2023-02-14T02:45:13.263Z,8.09
2023-02-14T02:48:24.256Z,8.11
2023-02-14T02:51:57.619Z,8.10
2023-02-14T02:55:09.168Z,8.10
2023-02-14T02:58:15.518Z,8.09
2023-02-14T03:01:22.192Z,8.08
2023-02-14T03:04:47.189Z,8.06
2023-02-14T03:07:53.737Z,8.09
2023-02-14T03:11:01.156Z,8.05
2023-02-14T03:14:21.110Z,8.03
2023-02-14T03:17:36.797Z,8.01
2023-02-14T03:20:51.156Z,7.99
2023-02-14T03:24:05.650Z,8.00
2023-02-14T03:27:21.823Z,8.01
2023-02-14T03:30:31.474Z,8.02
2023-02-14T03:33:48.042Z,7.97
2023-02-14T03:37:01.917Z,8.00
2023-02-14T03:40:15.443Z,8.00
2023-02-14T03:43:25.970Z,7.99
2023-02-14T03:46:36.813Z,7.98
2023-02-14T03:49:48.265Z,7.96
2023-02-14T03:52:55.721Z,7.94
2023-02-14T03:56:09.907Z,7.94
2023-02-14T03:59:18.579Z,7.93
2023-02-14T04:02:31.706Z,7.92
2023-02-14T04:05:38.617Z,7.91
2023-02-14T04:08:44.865Z,7.90
2023-02-14T04:11:51.564Z,7.88
2023-02-14T04:14:57.868Z,7.88
2023-02-14T04:18:19.584Z,7.90
2023-02-14T04:21:25.882Z,7.89
2023-02-14T04:24:30.597Z,7.91
2023-02-14T04:27:36.820Z,7.89
2023-02-14T04:30:43.176Z,7.88
2023-02-14T04:33:48.337Z,7.87
2023-02-14T04:36:54.843Z,7.86
2023-02-14T04:40:01.085Z,7.90
2023-02-14T04:43:08.243Z,7.91
2023-02-14T04:46:14.776Z,7.92
2023-02-14T04:49:21.207Z,7.91
2023-02-14T04:52:25.765Z,7.93
2023-02-14T04:55:32.251Z,7.91
2023-02-14T04:58:38.594Z,7.92
2023-02-14T05:01:43.458Z,7.93
2023-02-14T05:04:49.982Z,7.87
2023-02-14T05:07:56.299Z,7.85
2023-02-14T05:11:01.129Z,7.83
2023-02-14T05:14:10.103Z,7.76
2023-02-14T05:17:16.405Z,7.74
2023-02-14T05:20:21.015Z,7.75
2023-02-14T05:23:27.236Z,7.76
2023-02-14T05:26:33.973Z,7.80
2023-02-14T05:29:40.246Z,7.79
2023-02-14T05:32:44.722Z,7.77
2023-02-14T05:35:51.109Z,7.71
2023-02-14T05:38:55.745Z,7.70
2023-02-14T05:42:02.050Z,7.67
2023-02-14T05:45:07.305Z,7.67
2023-02-14T05:48:13.483Z,7.64
2023-02-14T05:51:19.780Z,7.67
2023-02-14T05:54:24.292Z,7.71
2023-02-14T05:57:30.697Z,7.71
2023-02-14T06:00:38.413Z,7.73
2023-02-14T06:03:46.240Z,7.75
2023-02-14T06:06:50.824Z,7.77
2023-02-14T06:09:57.109Z,7.78
2023-02-14T06:13:01.678Z,7.84
2023-02-14T06:16:08.905Z,7.83
2023-02-14T06:19:15.018Z,7.87
2023-02-14T06:22:21.578Z,7.90
2023-02-14T06:25:28.211Z,7.90
2023-02-14T06:28:34.485Z,7.91
2023-02-14T06:31:40.837Z,7.93
2023-02-14T06:34:47.191Z,7.95
2023-02-14T06:37:53.585Z,7.96
2023-02-14T06:41:06.329Z,7.97
2023-02-14T06:44:12.791Z,7.98
2023-02-14T06:47:17.293Z,8.01
2023-02-14T06:50:23.595Z,8.00
2023-02-14T06:53:28.407Z,8.03
2023-02-14T06:56:34.642Z,8.00
2023-02-14T06:59:40.905Z,8.01
2023-02-14T07:02:47.483Z,8.03
2023-02-14T07:05:54.757Z,8.04
2023-02-14T07:09:01.076Z,8.06
2023-02-14T07:12:05.604Z,8.07
2023-02-14T07:15:14.978Z,8.03
2023-02-14T07:18:21.243Z,8.05
2023-02-14T07:21:27.461Z,8.05
2023-02-14T07:24:33.731Z,8.08
2023-02-14T07:27:40.732Z,8.10
2023-02-14T07:30:46.952Z,8.15
2023-02-14T07:33:51.463Z,8.20
2023-02-14T07:36:57.809Z,8.20
2023-02-14T07:40:02.954Z,8.24
2023-02-14T07:43:09.617Z,8.21
2023-02-14T07:46:17.551Z,8.22
2023-02-14T07:49:24.152Z,8.18
2023-02-14T07:52:30.471Z,8.18
2023-02-14T07:55:34.963Z,8.20
2023-02-14T07:58:41.210Z,8.18
2023-02-14T08:01:47.759Z,8.20
2023-02-14T08:04:54.046Z,8.21
2023-02-14T08:07:58.534Z,8.24
2023-02-14T08:11:05.154Z,8.25
2023-02-14T08:14:11.526Z,8.31
2023-02-14T08:17:16.018Z,8.34
2023-02-14T08:20:22.406Z,8.38
2023-02-14T08:23:26.788Z,8.41
2023-02-14T08:26:33.796Z,8.42
2023-02-14T08:29:40.121Z,8.47
2023-02-14T08:32:44.650Z,8.53
2023-02-14T08:35:52.251Z,8.54
2023-02-14T08:38:58.708Z,8.62
2023-02-14T08:42:05.348Z,8.67
2023-02-14T08:45:12.738Z,8.69
2023-02-14T08:48:19.030Z,8.72
2023-02-14T08:51:24.074Z,8.74
2023-02-14T08:54:30.317Z,8.71
2023-02-14T08:57:35.135Z,8.77
2023-02-14T09:00:41.619Z,8.81
2023-02-14T09:03:48.039Z,8.86
2023-02-14T09:06:52.635Z,8.89
2023-02-14T09:09:58.956Z,8.90
2023-02-14T09:13:03.731Z,8.96
2023-02-14T09:16:11.999Z,8.97
2023-02-14T09:19:18.425Z,9.05
2023-02-14T09:22:22.955Z,9.09
2023-02-14T09:25:29.214Z,9.07
2023-02-14T09:28:35.408Z,9.11
2023-02-14T09:31:40.210Z,9.11
2023-02-14T09:35:04.270Z,9.06
2023-02-14T09:38:11.293Z,9.08
2023-02-14T09:41:50.681Z,9.12
2023-02-14T09:45:00.794Z,9.17
2023-02-14T09:48:13.874Z,9.26
2023-02-14T09:51:23.440Z,9.30
2023-02-14T09:54:31.641Z,9.34
2023-02-14T09:57:46.998Z,9.40
2023-02-14T10:01:00.874Z,9.39
2023-02-14T10:04:22.620Z,9.40
2023-02-14T10:07:34.979Z,9.45
2023-02-14T10:10:44.188Z,9.49
2023-02-14T10:13:54.737Z,9.51
2023-02-14T10:17:07.016Z,9.47
2023-02-14T10:20:22.141Z,9.45
2023-02-14T10:23:35.696Z,9.48
2023-02-14T10:26:42.980Z,9.54
2023-02-14T10:29:49.320Z,9.63
2023-02-14T10:32:58.974Z,9.71
2023-02-14T10:36:12.264Z,9.70
2023-02-14T10:39:47.373Z,9.76
2023-02-14T10:43:00.005Z,9.84
2023-02-14T10:46:17.786Z,9.90
2023-02-14T10:49:41.719Z,9.96
2023-02-14T10:52:59.199Z,9.94
2023-02-14T10:56:09.997Z,9.41
2023-02-14T10:59:23.497Z,8.88
2023-02-14T11:02:41.624Z,8.63
2023-02-14T11:05:49.770Z,9.00
2023-02-14T11:08:57.363Z,9.33
2023-02-14T11:12:03.929Z,9.51
2023-02-14T11:15:21.583Z,9.61
2023-02-14T11:18:33.022Z,9.70
2023-02-14T11:21:42.555Z,9.77
2023-02-14T11:24:48.830Z,9.79
2023-02-14T11:27:56.292Z,9.70
2023-02-14T11:31:03.565Z,9.12
2023-02-14T11:34:26.263Z,8.57
2023-02-14T11:37:37.581Z,8.29
2023-02-14T11:40:43.877Z,8.62
2023-02-14T11:43:49.423Z,8.93
2023-02-14T11:46:57.253Z,9.09
2023-02-14T11:50:06.662Z,9.24
2023-02-14T11:53:14.399Z,9.34
2023-02-14T11:56:22.370Z,9.42
2023-02-14T11:59:37.556Z,9.43
2023-02-14T12:02:45.822Z,8.94
2023-02-14T12:05:57.379Z,8.45
2023-02-14T12:09:25.363Z,8.09
2023-02-14T12:12:31.681Z,7.95
2023-02-14T12:15:40.740Z,8.36
2023-02-14T12:18:57.881Z,8.71
2023-02-14T12:22:07.362Z,8.94
2023-02-14T12:25:18.016Z,9.12
2023-02-14T12:28:30.931Z,9.29
2023-02-14T12:31:37.102Z,9.44
2023-02-14T12:34:41.720Z,9.58
2023-02-14T12:38:04.629Z,9.69
2023-02-14T12:41:26.023Z,9.76
2023-02-14T12:44:45.079Z,9.29
2023-02-14T12:48:01.126Z,8.78
2023-02-14T12:51:13.154Z,8.39
2023-02-14T12:54:34.926Z,8.21
2023-02-14T12:57:51.059Z,8.57
2023-02-14T13:01:04.267Z,8.88
2023-02-14T13:04:33.299Z,9.01
2023-02-14T13:08:06.093Z,9.10
2023-02-14T13:11:25.386Z,9.19
2023-02-14T13:14:51.980Z,9.31
2023-02-14T13:18:01.538Z,9.38
2023-02-14T13:21:11.785Z,9.36
2023-02-14T13:24:22.999Z,9.36
2023-02-14T13:27:32.934Z,9.38
2023-02-14T13:30:42.280Z,9.44
2023-02-14T13:33:53.291Z,9.49
2023-02-14T13:37:02.092Z,9.57
2023-02-14T13:40:19.536Z,9.66
2023-02-14T13:43:50.277Z,9.79
2023-02-14T13:46:56.603Z,9.75
2023-02-14T13:50:01.966Z,9.25
2023-02-14T13:53:12.467Z,8.76
2023-02-14T13:56:44.552Z,8.38
2023-02-14T14:00:40.069Z,8.21
2023-02-14T14:04:00.967Z,8.67
2023-02-14T14:07:30.158Z,9.00
2023-02-14T14:10:47.536Z,9.24
2023-02-14T14:14:02.789Z,9.41
2023-02-14T14:17:28.728Z,9.52
2023-02-14T14:20:45.764Z,9.60
2023-02-14T14:24:08.741Z,9.57
2023-02-14T14:27:21.906Z,9.02
2023-02-14T14:30:32.202Z,8.51
2023-02-14T14:33:38.905Z,8.26
2023-02-14T14:36:45.182Z,8.60
2023-02-14T14:39:53.449Z,8.97
2023-02-14T14:43:06.850Z,9.16
2023-02-14T14:46:15.884Z,9.30
2023-02-14T14:49:22.982Z,9.36
2023-02-14T14:52:35.267Z,9.44
2023-02-14T14:55:46.491Z,9.43
2023-02-14T14:58:53.013Z,8.94
2023-02-14T15:01:59.245Z,8.43
2023-02-14T15:05:24.485Z,8.05
2023-02-14T15:08:33.642Z,7.88
2023-02-14T15:11:58.353Z,8.21
2023-02-14T15:15:06.314Z,8.54
2023-02-14T15:18:15.854Z,8.73
2023-02-14T15:21:22.178Z,8.85
2023-02-14T15:24:27.268Z,8.97
2023-02-14T15:27:34.917Z,9.06
2023-02-14T15:30:44.385Z,9.17
2023-02-14T15:33:51.062Z,9.24
2023-02-14T15:37:03.625Z,9.32
2023-02-14T15:40:18.048Z,9.39
2023-02-14T15:43:32.110Z,9.45
2023-02-14T15:46:41.641Z,9.47
2023-02-14T15:49:48.051Z,9.39
2023-02-14T15:52:53.708Z,8.82
2023-02-14T15:56:08.057Z,8.25
2023-02-14T15:59:20.056Z,7.84
2023-02-14T16:02:36.113Z,7.63
2023-02-14T16:05:47.192Z,7.96
2023-02-14T16:08:58.110Z,8.27
2023-02-14T16:12:23.552Z,8.51
2023-02-14T16:15:32.102Z,8.68
2023-02-14T16:18:40.758Z,8.78
2023-02-14T16:21:58.476Z,8.87
2023-02-14T16:25:04.892Z,8.94
2023-02-14T16:28:11.205Z,8.97
2023-02-14T16:31:17.178Z,9.03
2023-02-14T16:34:22.176Z,9.05
2023-02-14T16:37:30.679Z,9.08
2023-02-14T16:40:37.498Z,9.13
2023-02-14T16:43:43.735Z,8.91
2023-02-14T16:46:50.817Z,8.29
2023-02-14T16:49:57.167Z,7.80
2023-02-14T16:53:02.246Z,7.43
2023-02-14T16:56:08.736Z,7.14
2023-02-14T16:59:14.998Z,7.01
2023-02-14T17:02:19.756Z,7.37
2023-02-14T17:05:28.329Z,7.71
2023-02-14T17:08:35.362Z,7.99
2023-02-14T17:11:46.595Z,8.17
2023-02-14T17:14:55.742Z,8.33
2023-02-14T17:18:07.702Z,8.47
2023-02-14T17:21:14.038Z,8.60
2023-02-14T17:24:18.730Z,8.71
2023-02-14T17:27:24.918Z,8.80
2023-02-14T17:30:31.139Z,8.93
2023-02-14T17:33:36.212Z,9.04
2023-02-14T17:36:42.423Z,8.90
2023-02-14T17:39:48.648Z,8.33
2023-02-14T17:42:53.111Z,7.85
2023-02-14T17:45:59.170Z,7.48
2023-02-14T17:49:05.286Z,7.20
2023-02-14T17:52:11.495Z,7.08
2023-02-14T17:55:17.922Z,7.46
2023-02-14T17:58:24.129Z,7.82
2023-02-14T18:01:33.124Z,8.07
2023-02-14T18:04:39.592Z,8.24
2023-02-14T18:07:46.200Z,8.40
2023-02-14T18:10:52.555Z,8.54
2023-02-14T18:13:58.107Z,8.67
2023-02-14T18:17:04.375Z,8.75
2023-02-14T18:20:09.930Z,8.86
2023-02-14T18:23:16.194Z,8.93
2023-02-14T18:26:20.684Z,9.04
2023-02-14T18:29:26.964Z,9.08
2023-02-14T18:32:31.458Z,9.05
2023-02-14T18:35:37.784Z,8.48
2023-02-14T18:38:42.793Z,7.96
2023-02-14T18:41:49.449Z,7.57
2023-02-14T18:44:55.660Z,7.27
2023-02-14T18:48:02.769Z,7.13
2023-02-14T18:51:10.802Z,7.47
2023-02-14T18:54:17.533Z,7.80
2023-02-14T18:57:25.014Z,8.04
2023-02-14T19:00:33.453Z,8.22
2023-02-14T19:03:40.278Z,8.35
2023-02-14T19:06:46.486Z,8.47
2023-02-14T19:09:52.741Z,8.58
2023-02-14T19:12:59.952Z,8.66
2023-02-14T19:16:12.840Z,8.75
2023-02-14T19:19:19.772Z,8.82
2023-02-14T19:22:26.077Z,8.89
2023-02-14T19:25:32.708Z,8.96
2023-02-14T19:28:39.399Z,8.99
2023-02-14T19:31:48.414Z,9.05
2023-02-14T19:34:54.857Z,9.10
2023-02-14T19:38:03.641Z,9.03
2023-02-14T19:41:14.979Z,8.44
2023-02-14T19:44:23.147Z,7.88
2023-02-14T19:47:45.985Z,7.47
2023-02-14T19:50:54.116Z,7.26
2023-02-14T19:54:02.190Z,7.59
2023-02-14T19:57:08.474Z,7.91
2023-02-14T20:00:17.634Z,8.12
2023-02-14T20:03:23.832Z,8.26
2023-02-14T20:06:30.538Z,8.37
2023-02-14T20:09:37.736Z,8.48
2023-02-14T20:12:44.217Z,8.57
2023-02-14T20:15:50.846Z,8.64
2023-02-14T20:18:57.789Z,8.70
2023-02-14T20:22:04.217Z,8.77
2023-02-14T20:25:11.326Z,8.84
2023-02-14T20:28:17.607Z,8.88
2023-02-14T20:31:22.507Z,8.93
2023-02-14T20:34:29.567Z,8.93
2023-02-14T20:37:36.366Z,8.98
2023-02-14T20:40:44.664Z,9.02
2023-02-14T20:43:50.934Z,8.95
2023-02-14T20:46:58.161Z,8.38
2023-02-14T20:50:04.477Z,7.81
2023-02-14T20:53:08.914Z,7.40
2023-02-14T20:56:16.481Z,7.08
2023-02-14T20:59:27.139Z,6.94
2023-02-14T21:02:33.504Z,7.31
2023-02-14T21:05:40.405Z,7.65
2023-02-14T21:08:48.116Z,7.89
2023-02-14T21:11:54.970Z,8.06
2023-02-14T21:15:01.229Z,8.19
2023-02-14T21:18:07.952Z,8.31
2023-02-14T21:21:19.994Z,8.41
2023-02-14T21:24:26.258Z,8.51
2023-02-14T21:27:32.728Z,8.60
2023-02-14T21:30:39.022Z,8.67
2023-02-14T21:33:43.546Z,8.74
2023-02-14T21:36:49.782Z,8.77
2023-02-14T21:39:56.584Z,8.84
2023-02-14T21:43:02.663Z,8.89
2023-02-14T21:46:10.878Z,8.92
2023-02-14T21:49:34.721Z,8.94
2023-02-14T21:52:40.962Z,8.95
2023-02-14T21:55:47.967Z,8.96
2023-02-14T21:58:56.489Z,8.96
2023-02-14T22:02:02.776Z,8.96
2023-02-14T22:05:08.053Z,8.95
2023-02-14T22:08:14.322Z,8.92
2023-02-14T22:11:20.580Z,8.94
2023-02-14T22:14:25.532Z,8.95
2023-02-14T22:17:33.561Z,8.93
2023-02-14T22:20:40.145Z,8.95
2023-02-14T22:23:47.037Z,8.95
2023-02-14T22:26:53.325Z,8.96
2023-02-14T22:29:57.822Z,8.97
2023-02-14T22:33:04.109Z,8.94
2023-02-14T22:36:11.361Z,8.93
2023-02-14T22:39:18.810Z,8.91
2023-02-14T22:42:24.994Z,8.90
2023-02-14T22:45:31.192Z,8.91
2023-02-14T22:48:38.598Z,8.91
2023-02-14T22:51:45.322Z,8.91
2023-02-14T22:54:52.956Z,8.91
2023-02-14T22:57:59.353Z,8.91
2023-02-14T23:01:04.639Z,8.91
2023-02-14T23:04:11.091Z,8.88
2023-02-14T23:07:17.805Z,8.90
2023-02-14T23:10:24.108Z,8.91
2023-02-14T23:13:45.983Z,8.89
2023-02-14T23:17:21.471Z,8.83
2023-02-14T23:20:45.964Z,8.81
2023-02-14T23:23:52.196Z,8.78
2023-02-14T23:26:58.806Z,8.75
2023-02-14T23:30:05.711Z,8.73
2023-02-14T23:33:12.078Z,8.72
2023-02-14T23:36:16.622Z,8.69
2023-02-14T23:39:23.302Z,8.64
2023-02-14T23:42:29.642Z,8.65
2023-02-14T23:45:36.841Z,8.64
2023-02-14T23:48:43.108Z,8.60
2023-02-14T23:51:51.248Z,8.57
2023-02-14T23:54:57.685Z,8.54
2023-02-14T23:58:02.521Z,8.51
